Página principal
METAR-TAF:

METAR-TAF

Aeroportos :

Bobo Dioulasso, Burkina Faso

latitude: 11-10N, longitude: 004-19W, altura: 460 m

Observação actual do tempo

O boletim foi feito há 48 minutos, às 05:00 UTC
Vento 4 kt de sul
Temperatura 23°C
Humidade 94%
Pressão 1012 hPa
Visibilidade 10 km ou mais
Poucas nuvensa uma altura de 1600 ft

METAR: DFOO 220500Z 18004KT 9999 FEW016 23/22 Q1012

Hora: 05:48 (05:48 UTC)

Previsão

O boletim foi feito há 48 minutos, às 05:00 UTC
Previsão válida de 22 às 06 UTC a 23 às 06 UTC
Vento 8 kt de su-sudoeste
Visibilidade 10 km ou mais
Nuvens dispersasa uma altura de 1600 ft
Temporariamente
de 22 às 06 UTC a 22 às 10 UTC
Nuvens fragmentadasa uma altura de 1000 ft
Temporariamente
de 22 às 14 UTC a 22 às 24 UTC
Visibilidade: 4000 m
Nuvens dispersasa uma altura de 1600 ft
Nuvens dispersasa uma altura de 3000 ft, Cumulonimbus.
trovoada, chuva

TAF: DFOO 220500Z 2206/2306 20008KT 9999 SCT016 TEMPO 2206/2210 BKN010 TEMPO 2214/2224 4000 TSRA SCT016 SCT030CB

Observações e previsões do tempo de mais de 4000 aeroportos (mensagens METAR e TAF).

As estações disponíveis são os pontos amarelos e vermelhos sobre o mapa.

Mova o rato sobre o mapa para ver o nome da estação.

Depois clique no ponto para visualizar as observações e previsões meteorológicas.

Para alterar o mapa : clique nos botões verdes com uma cruz preta para aumentar o zoom; no botão verde com uma pitada de zoom; ou nas setas verdes para mapas adjacentes.


METAR-TAF: